createdAt,value
2023-04-25T00:01:00.317Z,95278.00
2023-04-25T00:02:00.343Z,95280.00
2023-04-25T00:03:00.528Z,95280.00
2023-04-25T00:04:00.529Z,95276.00
2023-04-25T00:04:59.638Z,95276.00
2023-04-25T00:05:59.474Z,95274.00
2023-04-25T00:07:00.264Z,95276.00
2023-04-25T00:08:00.291Z,95276.00
2023-04-25T00:09:00.323Z,95278.00
2023-04-25T00:10:00.289Z,95278.00
2023-04-25T00:11:00.284Z,95282.00
2023-04-25T00:11:59.242Z,95282.00
2023-04-25T00:13:00.281Z,95284.00
2023-04-25T00:14:00.250Z,95282.00
2023-04-25T00:15:00.306Z,95282.00
2023-04-25T00:16:00.217Z,95280.00
2023-04-25T00:17:00.220Z,95282.00
2023-04-25T00:18:00.315Z,95282.00
2023-04-25T00:18:59.202Z,95282.00
2023-04-25T00:20:00.210Z,95282.00
2023-04-25T00:21:00.172Z,95282.00
2023-04-25T00:21:59.171Z,95278.00
2023-04-25T00:22:59.151Z,95276.00
2023-04-25T00:24:00.206Z,95274.00
2023-04-25T00:24:59.152Z,95274.00
2023-04-25T00:25:59.146Z,95272.00
2023-04-25T00:27:00.205Z,95276.00
2023-04-25T00:28:00.115Z,95274.00
2023-04-25T00:28:59.120Z,95270.00
2023-04-25T00:29:59.114Z,95264.00
2023-04-25T00:30:59.095Z,95262.00
2023-04-25T00:32:00.232Z,95261.00
2023-04-25T00:32:59.190Z,95261.00
2023-04-25T00:34:00.128Z,95262.00
2023-04-25T00:34:59.106Z,95261.00
2023-04-25T00:36:00.140Z,95261.00
2023-04-25T00:36:59.157Z,95261.00
2023-04-25T00:38:00.207Z,95264.00
2023-04-25T00:39:00.182Z,95266.00
2023-04-25T00:40:00.322Z,95264.00
2023-04-25T00:41:00.305Z,95266.00
2023-04-25T00:41:59.309Z,95264.00
2023-04-25T00:43:00.328Z,95262.00
2023-04-25T00:43:59.444Z,95262.00
2023-04-25T00:45:00.356Z,95262.00
2023-04-25T00:46:00.402Z,95259.00
2023-04-25T00:46:59.426Z,95257.00
2023-04-25T00:48:00.475Z,95261.00
2023-04-25T00:49:00.524Z,95257.00
2023-04-25T00:50:00.503Z,95257.00
2023-04-25T00:50:59.495Z,95255.00
2023-04-25T00:51:59.516Z,95255.00
2023-04-25T00:53:00.565Z,95255.00
2023-04-25T00:54:00.605Z,95253.00
2023-04-25T00:54:59.634Z,95251.00
2023-04-25T00:56:00.671Z,95251.00
2023-04-25T00:57:00.713Z,95249.00
2023-04-25T00:58:00.733Z,95251.00
2023-04-25T00:58:59.795Z,95247.00
2023-04-25T00:59:59.827Z,95249.00
2023-04-25T01:01:00.919Z,95247.00
2023-04-25T01:02:00.914Z,95243.00
2023-04-25T01:03:01.034Z,95243.00
2023-04-25T01:04:00.184Z,95245.00
2023-04-25T01:05:00.043Z,95245.00
2023-04-25T01:06:01.070Z,95247.00
2023-04-25T01:07:01.141Z,95247.00
2023-04-25T01:08:01.107Z,95243.00
2023-04-25T01:09:01.167Z,95245.00
2023-04-25T01:10:01.187Z,95245.00
2023-04-25T01:11:01.249Z,95247.00
2023-04-25T01:12:00.263Z,95247.00
2023-04-25T01:13:00.277Z,95247.00
2023-04-25T01:14:00.316Z,95243.00
2023-04-25T01:15:01.351Z,95247.00
2023-04-25T01:16:01.366Z,95245.00
2023-04-25T01:17:00.566Z,95245.00
2023-04-25T01:18:01.539Z,95247.00
2023-04-25T01:19:00.462Z,95249.00
2023-04-25T01:20:01.522Z,95249.00
2023-04-25T01:21:01.541Z,95253.00
2023-04-25T01:22:00.577Z,95253.00
2023-04-25T01:23:01.614Z,95251.00
2023-04-25T01:24:01.655Z,95253.00
2023-04-25T01:25:01.721Z,95251.00
2023-04-25T01:26:01.718Z,95253.00
2023-04-25T01:27:01.742Z,95255.00
2023-04-25T01:28:01.779Z,95255.00
2023-04-25T01:29:01.829Z,95259.00
2023-04-25T01:30:00.870Z,95259.00
2023-04-25T01:31:01.935Z,95255.00
2023-04-25T01:32:02.055Z,95255.00
2023-04-25T01:33:02.035Z,95257.00
2023-04-25T01:34:02.099Z,95255.00
2023-04-25T01:35:02.062Z,95255.00
2023-04-25T01:36:02.091Z,95253.00
2023-04-25T01:37:01.149Z,95253.00
2023-04-25T01:38:01.170Z,95253.00
2023-04-25T01:39:01.220Z,95253.00
2023-04-25T01:40:02.235Z,95257.00
2023-04-25T01:41:02.256Z,95251.00
2023-04-25T01:42:02.281Z,95249.00
2023-04-25T01:43:01.320Z,95249.00
2023-04-25T01:44:02.335Z,95247.00
2023-04-25T01:45:02.384Z,95253.00
2023-04-25T01:46:02.417Z,95253.00
2023-04-25T01:47:02.480Z,95253.00
2023-04-25T01:48:02.504Z,95249.00
2023-04-25T01:49:02.505Z,95251.00
2023-04-25T01:50:02.516Z,95249.00
2023-04-25T01:51:02.613Z,95251.00
2023-04-25T01:52:01.565Z,95253.00
2023-04-25T01:53:02.641Z,95253.00
2023-04-25T01:54:02.658Z,95255.00
2023-04-25T01:55:02.678Z,95255.00
2023-04-25T01:56:02.723Z,95253.00
2023-04-25T01:57:01.777Z,95251.00
2023-04-25T01:58:01.782Z,95253.00
2023-04-25T01:59:01.808Z,95257.00
2023-04-25T02:00:01.922Z,95259.00
2023-04-25T02:01:02.890Z,95255.00
2023-04-25T02:02:02.885Z,95249.00
2023-04-25T02:03:02.049Z,95247.00
2023-04-25T02:04:02.198Z,95245.00
2023-04-25T02:05:03.010Z,95251.00
2023-04-25T02:06:02.037Z,95255.00
2023-04-25T02:07:02.054Z,95255.00
2023-04-25T02:08:02.085Z,95255.00
2023-04-25T02:09:03.122Z,95253.00
2023-04-25T02:10:02.212Z,95253.00
2023-04-25T02:11:03.169Z,95251.00
2023-04-25T02:12:02.217Z,95251.00
2023-04-25T02:13:03.250Z,95251.00
2023-04-25T02:14:02.274Z,95251.00
2023-04-25T02:15:03.341Z,95255.00
2023-04-25T02:16:03.435Z,95257.00
2023-04-25T02:17:02.520Z,95261.00
2023-04-25T02:18:02.450Z,95261.00
2023-04-25T02:19:03.485Z,95262.00
2023-04-25T02:20:02.510Z,95261.00
2023-04-25T02:21:03.608Z,95262.00
2023-04-25T02:22:02.587Z,95262.00
2023-04-25T02:23:02.699Z,95261.00
2023-04-25T02:24:03.651Z,95259.00
2023-04-25T02:25:02.775Z,95259.00
2023-04-25T02:26:02.734Z,95261.00
2023-04-25T02:27:03.853Z,95261.00
2023-04-25T02:28:03.869Z,95257.00
2023-04-25T02:29:02.856Z,95257.00
2023-04-25T02:30:03.954Z,95257.00
2023-04-25T02:31:03.002Z,95257.00
2023-04-25T02:32:03.995Z,95259.00
2023-04-25T02:33:04.075Z,95255.00
2023-04-25T02:34:03.132Z,95253.00
2023-04-25T02:35:03.116Z,95251.00
2023-04-25T02:36:04.115Z,95251.00
2023-04-25T02:37:03.211Z,95245.00
2023-04-25T02:38:04.224Z,95245.00
2023-04-25T02:39:04.250Z,95241.00
2023-04-25T02:40:03.293Z,95241.00
2023-04-25T02:41:03.345Z,95241.00
2023-04-25T02:42:04.423Z,95241.00
2023-04-25T02:43:04.451Z,95239.00
2023-04-25T02:44:04.466Z,95239.00
2023-04-25T02:45:04.714Z,95239.00
2023-04-25T02:46:04.530Z,95237.00
2023-04-25T02:47:03.642Z,95237.00
2023-04-25T02:48:04.671Z,95235.00
2023-04-25T02:49:04.629Z,95233.00
2023-04-25T02:50:04.819Z,95231.00
2023-04-25T02:51:03.681Z,95227.00
2023-04-25T02:52:04.721Z,95227.00
2023-04-25T02:53:04.751Z,95225.00
2023-04-25T02:54:03.838Z,95223.00
2023-04-25T02:55:04.855Z,95221.00
2023-04-25T02:56:04.877Z,95219.00
2023-04-25T02:57:04.959Z,95217.00
2023-04-25T02:58:04.950Z,95217.00
2023-04-25T02:59:04.979Z,95219.00
2023-04-25T03:00:05.112Z,95219.00
2023-04-25T03:01:04.209Z,95219.00
2023-04-25T03:02:04.104Z,95219.00
2023-04-25T03:03:05.179Z,95219.00
2023-04-25T03:04:05.190Z,95219.00
2023-04-25T03:05:05.231Z,95217.00
2023-04-25T03:06:04.268Z,95215.00
2023-04-25T03:07:04.371Z,95214.00
2023-04-25T03:08:05.380Z,95212.00
2023-04-25T03:09:05.367Z,95210.00
2023-04-25T03:10:05.447Z,95210.00
2023-04-25T03:11:05.480Z,95212.00
2023-04-25T03:12:04.583Z,95212.00
2023-04-25T03:13:05.590Z,95212.00
2023-04-25T03:14:05.674Z,95214.00
2023-04-25T03:15:05.682Z,95210.00
2023-04-25T03:16:05.805Z,95215.00
2023-04-25T03:17:04.796Z,95214.00
2023-04-25T03:18:05.896Z,95214.00
2023-04-25T03:19:05.887Z,95214.00
2023-04-25T03:20:05.942Z,95212.00
2023-04-25T03:21:05.951Z,95214.00
2023-04-25T03:22:06.010Z,95212.00
2023-04-25T03:23:06.122Z,95214.00
2023-04-25T03:24:06.084Z,95210.00
2023-04-25T03:25:06.177Z,95210.00
2023-04-25T03:26:05.201Z,95212.00
2023-04-25T03:27:05.237Z,95212.00
2023-04-25T03:28:06.303Z,95208.00
2023-04-25T03:29:06.361Z,95206.00
2023-04-25T03:30:06.355Z,95206.00
2023-04-25T03:31:06.422Z,95204.00
2023-04-25T03:32:06.640Z,95204.00
2023-04-25T03:33:05.521Z,95200.00
2023-04-25T03:34:05.597Z,95202.00
2023-04-25T03:35:06.766Z,95198.00
2023-04-25T03:36:05.621Z,95196.00
2023-04-25T03:37:05.651Z,95196.00
2023-04-25T03:38:05.695Z,95196.00
2023-04-25T03:39:06.727Z,95192.00
2023-04-25T03:40:06.790Z,95192.00
2023-04-25T03:41:06.808Z,95190.00
2023-04-25T03:42:06.894Z,95190.00
2023-04-25T03:43:05.884Z,95186.00
2023-04-25T03:44:06.918Z,95188.00
2023-04-25T03:45:05.995Z,95184.00
2023-04-25T03:46:06.059Z,95182.00
2023-04-25T03:47:06.061Z,95180.00
2023-04-25T03:48:06.133Z,95186.00
2023-04-25T03:49:07.150Z,95184.00
2023-04-25T03:50:07.164Z,95188.00
2023-04-25T03:51:07.163Z,95184.00
2023-04-25T03:52:06.216Z,95188.00
2023-04-25T03:53:07.306Z,95190.00
2023-04-25T03:54:06.263Z,95190.00
2023-04-25T03:55:07.315Z,95192.00
2023-04-25T03:56:06.314Z,95192.00
2023-04-25T03:57:06.326Z,95190.00
2023-04-25T03:58:06.362Z,95190.00
2023-04-25T03:59:07.443Z,95196.00
2023-04-25T04:00:07.460Z,95196.00
2023-04-25T04:01:07.429Z,95198.00
2023-04-25T04:02:07.491Z,95198.00
2023-04-25T04:03:07.604Z,95200.00
2023-04-25T04:04:07.851Z,95200.00
2023-04-25T04:05:06.820Z,95200.00
2023-04-25T04:06:07.616Z,95202.00
2023-04-25T04:07:06.569Z,95198.00
2023-04-25T04:08:07.594Z,95198.00
2023-04-25T04:09:07.610Z,95198.00
2023-04-25T04:10:07.642Z,95196.00
2023-04-25T04:11:06.659Z,95198.00
2023-04-25T04:12:07.720Z,95198.00
2023-04-25T04:13:07.710Z,95198.00
2023-04-25T04:14:07.718Z,95198.00
2023-04-25T04:15:07.803Z,95196.00
2023-04-25T04:16:07.805Z,95196.00
2023-04-25T04:17:07.786Z,95196.00
2023-04-25T04:18:07.839Z,95198.00
2023-04-25T04:19:07.814Z,95196.00
2023-04-25T04:20:07.893Z,95198.00
2023-04-25T04:21:07.895Z,95198.00
2023-04-25T04:22:06.888Z,95198.00
2023-04-25T04:23:06.930Z,95200.00
2023-04-25T04:24:07.957Z,95198.00
2023-04-25T04:25:07.970Z,95202.00
2023-04-25T04:26:08.010Z,95198.00
2023-04-25T04:27:07.034Z,95198.00
2023-04-25T04:28:08.047Z,95196.00
2023-04-25T04:29:08.079Z,95194.00
2023-04-25T04:30:08.064Z,95194.00
2023-04-25T04:31:08.130Z,95192.00
2023-04-25T04:32:07.169Z,95196.00
2023-04-25T04:33:08.191Z,95196.00
2023-04-25T04:34:07.227Z,95200.00
2023-04-25T04:35:08.310Z,95200.00
2023-04-25T04:36:07.194Z,95200.00
2023-04-25T04:37:07.246Z,95200.00
2023-04-25T04:38:08.248Z,95200.00
2023-04-25T04:39:08.252Z,95200.00
2023-04-25T04:40:07.537Z,95200.00
2023-04-25T04:41:07.408Z,95200.00
2023-04-25T04:42:08.309Z,95198.00
2023-04-25T04:43:07.364Z,95202.00
2023-04-25T04:44:08.779Z,95202.00
2023-04-25T04:45:08.373Z,95202.00
2023-04-25T04:46:08.505Z,95202.00
2023-04-25T04:47:07.438Z,95200.00
2023-04-25T04:48:07.566Z,95200.00
2023-04-25T04:49:07.476Z,95202.00
2023-04-25T04:50:08.505Z,95200.00
2023-04-25T04:51:08.560Z,95202.00
2023-04-25T04:52:08.581Z,95202.00
2023-04-25T04:53:08.575Z,95202.00
2023-04-25T04:54:07.681Z,95204.00
2023-04-25T04:55:08.585Z,95204.00
2023-04-25T04:56:08.621Z,95204.00
2023-04-25T04:57:07.638Z,95204.00
2023-04-25T04:58:07.620Z,95202.00
2023-04-25T04:59:08.645Z,95204.00
2023-04-25T05:00:08.631Z,95200.00
2023-04-25T05:01:07.736Z,95200.00
2023-04-25T05:02:08.689Z,95198.00
2023-04-25T05:03:08.856Z,95198.00
2023-04-25T05:04:08.899Z,95198.00
2023-04-25T05:05:07.708Z,95200.00
2023-04-25T05:06:07.730Z,95196.00
2023-04-25T05:07:07.792Z,95198.00
2023-04-25T05:08:08.764Z,95198.00
2023-04-25T05:09:07.829Z,95196.00
2023-04-25T05:10:08.900Z,95198.00
2023-04-25T05:11:08.816Z,95196.00
2023-04-25T05:12:07.839Z,95198.00
2023-04-25T05:13:08.844Z,95194.00
2023-04-25T05:14:07.896Z,95196.00
2023-04-25T05:15:07.857Z,95200.00
2023-04-25T05:16:08.893Z,95198.00
2023-04-25T05:17:07.862Z,95198.00
2023-04-25T05:18:09.249Z,95198.00
2023-04-25T05:19:08.078Z,95194.00
2023-04-25T05:20:09.170Z,95190.00
2023-04-25T05:21:08.972Z,95190.00
2023-04-25T05:22:08.984Z,95194.00
2023-04-25T05:23:07.905Z,95194.00
2023-04-25T05:24:08.922Z,95194.00
2023-04-25T05:25:08.867Z,95194.00
2023-04-25T05:26:08.897Z,95192.00
2023-04-25T05:27:08.886Z,95196.00
2023-04-25T05:28:08.890Z,95194.00
2023-04-25T05:29:08.907Z,95192.00
2023-04-25T05:30:08.919Z,95190.00
2023-04-25T05:31:07.923Z,95188.00
2023-04-25T05:32:09.041Z,95188.00
2023-04-25T05:33:08.092Z,95188.00
2023-04-25T05:34:08.948Z,95186.00
2023-04-25T05:35:08.973Z,95188.00
2023-04-25T05:36:08.977Z,95186.00
2023-04-25T05:37:08.971Z,95190.00
2023-04-25T05:38:07.984Z,95188.00
2023-04-25T05:39:08.958Z,95188.00
2023-04-25T05:40:07.996Z,95190.00
2023-04-25T05:41:07.996Z,95188.00
2023-04-25T05:42:07.999Z,95184.00
2023-04-25T05:43:08.976Z,95184.00
2023-04-25T05:44:09.021Z,95184.00
2023-04-25T05:45:08.975Z,95186.00
2023-04-25T05:46:08.973Z,95184.00
2023-04-25T05:47:08.988Z,95184.00
2023-04-25T05:48:09.020Z,95184.00
2023-04-25T05:49:08.068Z,95180.00
2023-04-25T05:50:09.658Z,95180.00
2023-04-25T05:51:08.097Z,95180.00
2023-04-25T05:52:08.196Z,95174.00
2023-04-25T05:53:09.217Z,95172.00
2023-04-25T05:54:09.276Z,95170.00
2023-04-25T05:55:09.348Z,95174.00
2023-04-25T05:56:09.332Z,95172.00
2023-04-25T05:57:08.432Z,95174.00
2023-04-25T05:58:09.442Z,95178.00
2023-04-25T05:59:09.520Z,95178.00
2023-04-25T06:00:09.685Z,95178.00
2023-04-25T06:01:08.579Z,95174.00
2023-04-25T06:02:08.940Z,95176.00
2023-04-25T06:03:09.767Z,95178.00
2023-04-25T06:04:10.030Z,95176.00
2023-04-25T06:05:10.253Z,95170.00
2023-04-25T06:06:09.818Z,95174.00
2023-04-25T06:07:09.960Z,95172.00
2023-04-25T06:08:09.887Z,95172.00
2023-04-25T06:09:09.918Z,95167.00
2023-04-25T06:10:09.895Z,95174.00
2023-04-25T06:11:11.022Z,95170.00
2023-04-25T06:12:09.997Z,95168.00
2023-04-25T06:13:09.912Z,95170.00
2023-04-25T06:14:09.914Z,95168.00
2023-04-25T06:15:20.080Z,95168.00
2023-04-25T06:16:09.995Z,95174.00
2023-04-25T06:17:08.899Z,95172.00
2023-04-25T06:18:09.953Z,95176.00
2023-04-25T06:19:08.884Z,95176.00
2023-04-25T06:20:09.888Z,95176.00
2023-04-25T06:21:08.895Z,95178.00
2023-04-25T06:22:09.858Z,95180.00
2023-04-25T06:23:08.890Z,95178.00
2023-04-25T06:24:09.882Z,95176.00
2023-04-25T06:25:08.831Z,95176.00
2023-04-25T06:26:09.854Z,95178.00
2023-04-25T06:27:08.936Z,95176.00
2023-04-25T06:28:09.927Z,95172.00
2023-04-25T06:29:09.960Z,95172.00
2023-04-25T06:30:10.030Z,95170.00
2023-04-25T06:31:09.105Z,95168.00
2023-04-25T06:32:09.112Z,95167.00
2023-04-25T06:33:10.167Z,95163.00
2023-04-25T06:34:10.185Z,95155.00
2023-04-25T06:35:10.235Z,95141.00
2023-04-25T06:36:10.294Z,95137.00
2023-04-25T06:37:10.556Z,95137.00
2023-04-25T06:38:09.360Z,95139.00
2023-04-25T06:39:10.442Z,95139.00
2023-04-25T06:40:09.478Z,95143.00
2023-04-25T06:41:09.489Z,95143.00
2023-04-25T06:42:09.686Z,95153.00
2023-04-25T06:43:16.586Z,95153.00
2023-04-25T06:44:10.567Z,95155.00
2023-04-25T06:45:09.559Z,95153.00
2023-04-25T06:46:10.568Z,95155.00
2023-04-25T06:47:10.551Z,95157.00
2023-04-25T06:48:09.588Z,95157.00
2023-04-25T06:49:09.557Z,95155.00
2023-04-25T06:50:10.524Z,95157.00
2023-04-25T06:51:09.508Z,95155.00
2023-04-25T06:52:10.686Z,95155.00
2023-04-25T06:53:10.493Z,95145.00
2023-04-25T06:54:10.496Z,95143.00
2023-04-25T06:55:10.526Z,95143.00
2023-04-25T06:56:09.530Z,95139.00
2023-04-25T06:57:10.668Z,95141.00
2023-04-25T06:58:09.478Z,95139.00
2023-04-25T06:59:10.473Z,95133.00
2023-04-25T07:00:10.468Z,95131.00
2023-04-25T07:01:10.508Z,95133.00
2023-04-25T07:02:09.489Z,95133.00
2023-04-25T07:03:10.627Z,95137.00
2023-04-25T07:04:10.682Z,95133.00
2023-04-25T07:05:10.435Z,95137.00
2023-04-25T07:06:10.430Z,95137.00
2023-04-25T07:07:10.423Z,95139.00
2023-04-25T07:08:10.425Z,95139.00
2023-04-25T07:09:10.406Z,95141.00
2023-04-25T07:10:10.397Z,95141.00
2023-04-25T07:11:10.388Z,95137.00
2023-04-25T07:12:10.420Z,95141.00
2023-04-25T07:13:09.417Z,95141.00
2023-04-25T07:14:09.483Z,95145.00
2023-04-25T07:15:10.557Z,95141.00
2023-04-25T07:16:10.633Z,95139.00
2023-04-25T07:17:10.663Z,95141.00
2023-04-25T07:18:10.766Z,95143.00
2023-04-25T07:19:10.789Z,95145.00
2023-04-25T07:20:10.843Z,95143.00
2023-04-25T07:21:10.906Z,95143.00
2023-04-25T07:22:09.974Z,95153.00
2023-04-25T07:23:11.040Z,95155.00
2023-04-25T07:24:11.121Z,95159.00
2023-04-25T07:25:10.136Z,95157.00
2023-04-25T07:26:11.186Z,95161.00
2023-04-25T07:27:10.218Z,95163.00
2023-04-25T07:28:11.285Z,95165.00
2023-04-25T07:29:11.283Z,95165.00
2023-04-25T07:30:11.294Z,95167.00
2023-04-25T07:31:11.331Z,95167.00
2023-04-25T07:32:10.494Z,95165.00
2023-04-25T07:33:11.370Z,95163.00
2023-04-25T07:34:10.379Z,95161.00
2023-04-25T07:35:11.359Z,95157.00
2023-04-25T07:36:11.357Z,95155.00
2023-04-25T07:37:11.381Z,95157.00
2023-04-25T07:38:11.403Z,95153.00
2023-04-25T07:39:11.363Z,95155.00
2023-04-25T07:40:11.346Z,95155.00
2023-04-25T07:41:10.360Z,95155.00
2023-04-25T07:42:10.354Z,95155.00
2023-04-25T07:43:11.357Z,95155.00
2023-04-25T07:44:10.372Z,95143.00
2023-04-25T07:45:11.369Z,95153.00
2023-04-25T07:46:11.462Z,95153.00
2023-04-25T07:47:10.699Z,95155.00
2023-04-25T07:48:11.393Z,95153.00
2023-04-25T07:49:10.400Z,95145.00
2023-04-25T07:50:11.461Z,95145.00
2023-04-25T07:51:11.462Z,95143.00
2023-04-25T07:52:10.512Z,95153.00
2023-04-25T07:53:10.704Z,95143.00
2023-04-25T07:54:10.530Z,95143.00
2023-04-25T07:55:11.556Z,95141.00
2023-04-25T07:56:10.561Z,95141.00
2023-04-25T07:57:11.615Z,95143.00
2023-04-25T07:58:11.607Z,95143.00
2023-04-25T07:59:11.645Z,95141.00
2023-04-25T08:00:11.671Z,95141.00
2023-04-25T08:01:11.656Z,95153.00
2023-04-25T08:02:11.739Z,95145.00
2023-04-25T08:03:11.888Z,95153.00
2023-04-25T08:04:10.804Z,95153.00
2023-04-25T08:05:10.895Z,95157.00
2023-04-25T08:06:11.153Z,95157.00
2023-04-25T08:07:10.774Z,95157.00
2023-04-25T08:08:11.775Z,95155.00
2023-04-25T08:09:11.776Z,95153.00
2023-04-25T08:10:11.790Z,95145.00
2023-04-25T08:11:11.880Z,95145.00
2023-04-25T08:12:11.853Z,95153.00
2023-04-25T08:13:11.851Z,95153.00
2023-04-25T08:14:11.878Z,95153.00
2023-04-25T08:15:10.862Z,95153.00
2023-04-25T08:16:11.961Z,95153.00
2023-04-25T08:17:11.929Z,95155.00
2023-04-25T08:18:10.952Z,95153.00
2023-04-25T08:19:11.917Z,95157.00
2023-04-25T08:20:10.952Z,95159.00
2023-04-25T08:21:11.959Z,95157.00
2023-04-25T08:22:10.985Z,95157.00
2023-04-25T08:23:12.001Z,95157.00
2023-04-25T08:24:12.037Z,95157.00
2023-04-25T08:25:12.079Z,95157.00
2023-04-25T08:26:12.058Z,95157.00
2023-04-25T08:27:12.128Z,95153.00
2023-04-25T08:28:12.104Z,95157.00
2023-04-25T08:29:12.125Z,95153.00
2023-04-25T08:30:11.196Z,95155.00
2023-04-25T08:31:11.222Z,95157.00
2023-04-25T08:32:12.248Z,95155.00
2023-04-25T08:33:11.300Z,95157.00
2023-04-25T08:34:12.258Z,95157.00
2023-04-25T08:35:12.269Z,95161.00
2023-04-25T08:36:12.288Z,95157.00
2023-04-25T08:37:12.349Z,95157.00
2023-04-25T08:38:11.337Z,95155.00
2023-04-25T08:39:11.350Z,95153.00
2023-04-25T08:40:11.364Z,95145.00
2023-04-25T08:41:12.411Z,95145.00
2023-04-25T08:42:12.726Z,95145.00
2023-04-25T08:43:12.512Z,95145.00
2023-04-25T08:44:11.459Z,95141.00
2023-04-25T08:45:12.518Z,95143.00
2023-04-25T08:46:12.566Z,95143.00
2023-04-25T08:47:11.692Z,95141.00
2023-04-25T08:48:12.706Z,95141.00
2023-04-25T08:49:12.680Z,95141.00
2023-04-25T08:50:12.692Z,95137.00
2023-04-25T08:51:12.743Z,95137.00
2023-04-25T08:52:12.739Z,95139.00
2023-04-25T08:53:11.784Z,95139.00
2023-04-25T08:54:23.429Z,95137.00
2023-04-25T08:55:12.835Z,95137.00
2023-04-25T08:56:11.868Z,95137.00
2023-04-25T08:57:11.820Z,95139.00
2023-04-25T08:58:13.209Z,95135.00
2023-04-25T08:59:12.818Z,95135.00
2023-04-25T09:00:11.786Z,95135.00
2023-04-25T09:01:13.067Z,95133.00
2023-04-25T09:02:11.915Z,95133.00
2023-04-25T09:03:12.878Z,95127.00
2023-04-25T09:04:11.892Z,95127.00
2023-04-25T09:05:12.762Z,95127.00
2023-04-25T09:06:12.754Z,95131.00
2023-04-25T09:07:12.760Z,95131.00
2023-04-25T09:08:12.770Z,95131.00
2023-04-25T09:09:12.729Z,95129.00
2023-04-25T09:10:12.806Z,95129.00
2023-04-25T09:11:12.715Z,95129.00
2023-04-25T09:12:11.712Z,95127.00
2023-04-25T09:13:12.726Z,95125.00
2023-04-25T09:14:12.718Z,95127.00
2023-04-25T09:15:11.909Z,95123.00
2023-04-25T09:16:12.846Z,95125.00
2023-04-25T09:17:12.858Z,95127.00
2023-04-25T09:18:12.882Z,95127.00
2023-04-25T09:19:11.950Z,95129.00
2023-04-25T09:20:12.014Z,95127.00
2023-04-25T09:21:14.666Z,95125.00
2023-04-25T09:22:12.035Z,95125.00
2023-04-25T09:23:12.981Z,95129.00
2023-04-25T09:24:12.971Z,95131.00
2023-04-25T09:25:11.970Z,95127.00
2023-04-25T09:26:12.976Z,95123.00
2023-04-25T09:27:12.999Z,95123.00
2023-04-25T09:28:11.971Z,95125.00
2023-04-25T09:29:11.988Z,95121.00
2023-04-25T09:30:12.934Z,95123.00
2023-04-25T09:31:11.930Z,95123.00
2023-04-25T09:32:13.069Z,95125.00
2023-04-25T09:33:11.954Z,95123.00
2023-04-25T09:34:12.917Z,95123.00
2023-04-25T09:35:12.930Z,95123.00
2023-04-25T09:36:12.051Z,95123.00
2023-04-25T09:37:12.889Z,95121.00
2023-04-25T09:38:12.887Z,95123.00
2023-04-25T09:39:11.881Z,95123.00
2023-04-25T09:40:11.878Z,95123.00
2023-04-25T09:41:12.901Z,95123.00
2023-04-25T09:42:12.988Z,95123.00
2023-04-25T09:43:12.865Z,95121.00
2023-04-25T09:44:12.852Z,95119.00
2023-04-25T09:45:12.839Z,95117.00
2023-04-25T09:46:12.893Z,95119.00
2023-04-25T09:47:12.849Z,95114.00
2023-04-25T09:48:13.249Z,95121.00
2023-04-25T09:49:12.843Z,95119.00
2023-04-25T09:50:11.801Z,95117.00
2023-04-25T09:51:12.802Z,95117.00
2023-04-25T09:52:12.830Z,95121.00
2023-04-25T09:53:13.232Z,95121.00
2023-04-25T09:54:12.804Z,95117.00
2023-04-25T09:55:12.791Z,95121.00
2023-04-25T09:56:12.772Z,95119.00
2023-04-25T09:57:11.769Z,95123.00
2023-04-25T09:58:12.780Z,95119.00
2023-04-25T09:59:12.761Z,95121.00
2023-04-25T10:00:12.757Z,95121.00
2023-04-25T10:01:12.755Z,95121.00
2023-04-25T10:02:12.808Z,95121.00
2023-04-25T10:03:12.828Z,95115.00
2023-04-25T10:04:11.812Z,95115.00
2023-04-25T10:05:12.816Z,95114.00
2023-04-25T10:06:11.711Z,95114.00
2023-04-25T10:07:11.723Z,95110.00
2023-04-25T10:08:11.783Z,95114.00
2023-04-25T10:09:12.730Z,95110.00
2023-04-25T10:10:11.766Z,95108.00
2023-04-25T10:11:12.817Z,95110.00
2023-04-25T10:12:11.869Z,95108.00
2023-04-25T10:13:12.915Z,95106.00
2023-04-25T10:14:12.959Z,95106.00
2023-04-25T10:15:12.999Z,95106.00
2023-04-25T10:16:12.097Z,95104.00
2023-04-25T10:17:12.113Z,95104.00
2023-04-25T10:18:12.173Z,95102.00
2023-04-25T10:19:13.234Z,95102.00
2023-04-25T10:20:13.250Z,95102.00
2023-04-25T10:21:13.301Z,95100.00
2023-04-25T10:22:13.349Z,95102.00
2023-04-25T10:23:13.408Z,95102.00
2023-04-25T10:24:12.638Z,95098.00
2023-04-25T10:25:12.526Z,95100.00
2023-04-25T10:26:12.570Z,95100.00
2023-04-25T10:27:13.613Z,95100.00
2023-04-25T10:28:13.663Z,95096.00
2023-04-25T10:29:13.716Z,95096.00
2023-04-25T10:30:13.804Z,95098.00
2023-04-25T10:31:12.909Z,95096.00
2023-04-25T10:32:12.891Z,95098.00
2023-04-25T10:33:13.956Z,95098.00
2023-04-25T10:34:12.967Z,95100.00
2023-04-25T10:35:13.997Z,95100.00
2023-04-25T10:36:14.007Z,95100.00
2023-04-25T10:37:13.065Z,95102.00
2023-04-25T10:38:14.090Z,95102.00
2023-04-25T10:39:14.105Z,95100.00
2023-04-25T10:40:13.162Z,95100.00
2023-04-25T10:41:14.169Z,95098.00
2023-04-25T10:42:14.217Z,95096.00
2023-04-25T10:43:15.131Z,95096.00
2023-04-25T10:44:14.221Z,95094.00
2023-04-25T10:45:15.250Z,95098.00
2023-04-25T10:46:14.315Z,95094.00
2023-04-25T10:47:13.489Z,95096.00
2023-04-25T10:48:14.787Z,95096.00
2023-04-25T10:49:16.157Z,95100.00
2023-04-25T10:50:14.401Z,95096.00
2023-04-25T10:51:13.351Z,95096.00
2023-04-25T10:52:13.362Z,95098.00
2023-04-25T10:53:13.376Z,95098.00
2023-04-25T10:54:14.341Z,95100.00
2023-04-25T10:55:13.334Z,95102.00
2023-04-25T10:56:14.473Z,95104.00
2023-04-25T10:57:14.315Z,95100.00
2023-04-25T10:58:14.313Z,95102.00
2023-04-25T10:59:14.328Z,95104.00
2023-04-25T11:00:13.308Z,95106.00
2023-04-25T11:01:14.298Z,95106.00
2023-04-25T11:02:14.638Z,95108.00
2023-04-25T11:03:14.403Z,95110.00
2023-04-25T11:04:13.409Z,95110.00
2023-04-25T11:05:13.256Z,95112.00
2023-04-25T11:06:13.255Z,95115.00
2023-04-25T11:07:14.278Z,95114.00
2023-04-25T11:08:14.257Z,95115.00
2023-04-25T11:09:14.297Z,95115.00
2023-04-25T11:10:13.266Z,95114.00
2023-04-25T11:11:13.222Z,95114.00
2023-04-25T11:12:13.287Z,95117.00
2023-04-25T11:13:14.214Z,95114.00
2023-04-25T11:14:14.209Z,95117.00
2023-04-25T11:15:14.225Z,95114.00
2023-04-25T11:16:13.632Z,95112.00
2023-04-25T11:17:14.431Z,95112.00
2023-04-25T11:18:13.171Z,95114.00
2023-04-25T11:19:14.169Z,95112.00
2023-04-25T11:20:14.153Z,95110.00
2023-04-25T11:21:14.151Z,95112.00
2023-04-25T11:22:13.156Z,95108.00
2023-04-25T11:23:13.170Z,95104.00
2023-04-25T11:24:14.130Z,95108.00
2023-04-25T11:25:13.138Z,95102.00
2023-04-25T11:26:13.155Z,95100.00
2023-04-25T11:27:14.147Z,95100.00
2023-04-25T11:28:14.198Z,95098.00
2023-04-25T11:29:14.222Z,95096.00
2023-04-25T11:30:13.240Z,95096.00
2023-04-25T11:31:13.311Z,95094.00
2023-04-25T11:32:13.401Z,95092.00
2023-04-25T11:33:13.473Z,95094.00
2023-04-25T11:34:14.459Z,95092.00
2023-04-25T11:35:14.488Z,95090.00
2023-04-25T11:36:14.561Z,95090.00
2023-04-25T11:37:14.576Z,95090.00
2023-04-25T11:38:14.782Z,95088.00
2023-04-25T11:39:14.693Z,95086.00
2023-04-25T11:40:14.718Z,95084.00
2023-04-25T11:41:13.780Z,95082.00
2023-04-25T11:42:14.281Z,95082.00
2023-04-25T11:43:14.877Z,95080.00
2023-04-25T11:44:14.957Z,95078.00
2023-04-25T11:45:14.964Z,95076.00